createdAt,value
2018-01-17T00:01:02.186Z,988.25
2018-01-17T00:02:02.193Z,988.25
2018-01-17T00:03:54.381Z,988.26
2018-01-17T00:04:54.380Z,988.22
2018-01-17T00:06:46.577Z,988.25
2018-01-17T00:07:46.573Z,988.20
2018-01-17T00:09:38.794Z,988.22
2018-01-17T00:10:38.796Z,988.20
2018-01-17T00:12:31.964Z,988.18
2018-01-17T00:13:31.969Z,988.23
2018-01-17T00:15:24.225Z,988.23
2018-01-17T00:16:24.209Z,988.23
2018-01-17T00:18:16.414Z,988.23
2018-01-17T00:19:16.414Z,988.23
2018-01-17T00:21:08.614Z,988.24
2018-01-17T00:22:08.607Z,988.22
2018-01-17T00:24:01.755Z,988.27
2018-01-17T00:25:01.770Z,988.25
2018-01-17T00:26:54.932Z,988.22
2018-01-17T00:27:54.930Z,988.24
2018-01-17T00:29:48.087Z,988.25
2018-01-17T00:30:48.108Z,988.26
2018-01-17T00:32:41.302Z,988.24
2018-01-17T00:33:41.318Z,988.22
2018-01-17T00:35:34.448Z,988.22
2018-01-17T00:36:34.467Z,988.21
2018-01-17T00:38:27.638Z,988.23
2018-01-17T00:39:27.645Z,988.22
2018-01-17T00:41:31.475Z,988.17
2018-01-17T00:42:31.488Z,988.15
2018-01-17T00:44:23.953Z,988.17
2018-01-17T00:45:23.666Z,988.18
2018-01-17T00:47:26.545Z,988.15
2018-01-17T00:48:26.542Z,988.14
2018-01-17T00:50:18.735Z,988.17
2018-01-17T00:51:18.729Z,988.15
2018-01-17T00:53:10.917Z,988.12
2018-01-17T00:54:10.939Z,988.16
2018-01-17T00:56:03.093Z,988.17
2018-01-17T00:57:03.093Z,988.17
2018-01-17T00:58:55.295Z,988.16
2018-01-17T00:59:55.288Z,988.18
2018-01-17T01:01:47.435Z,988.24
2018-01-17T01:02:47.447Z,988.21
2018-01-17T01:04:39.620Z,988.12
2018-01-17T01:05:39.613Z,988.16
2018-01-17T01:07:31.809Z,988.20
2018-01-17T01:08:31.807Z,988.18
2018-01-17T01:10:23.956Z,988.20
2018-01-17T01:11:23.966Z,988.24
2018-01-17T01:13:16.143Z,988.18
2018-01-17T01:14:16.145Z,988.19
2018-01-17T01:16:09.347Z,988.17
2018-01-17T01:17:09.378Z,988.15
2018-01-17T01:19:02.516Z,988.08
2018-01-17T01:20:02.523Z,988.11
2018-01-17T01:21:55.674Z,988.10
2018-01-17T01:22:55.703Z,988.07
2018-01-17T01:24:48.845Z,988.12
2018-01-17T01:25:48.845Z,988.11
2018-01-17T01:27:41.054Z,988.09
2018-01-17T01:28:41.041Z,988.12
2018-01-17T01:30:34.246Z,988.16
2018-01-17T01:31:34.253Z,988.11
2018-01-17T01:33:27.412Z,988.15
2018-01-17T01:34:27.415Z,988.12
2018-01-17T01:36:20.546Z,988.12
2018-01-17T01:37:20.562Z,988.13
2018-01-17T01:39:12.829Z,988.09
2018-01-17T01:40:12.735Z,988.10
2018-01-17T01:42:04.966Z,988.08
2018-01-17T01:43:04.957Z,988.07
2018-01-17T01:44:58.093Z,988.05
2018-01-17T01:45:58.105Z,988.07
2018-01-17T01:47:50.281Z,988.08
2018-01-17T01:48:50.281Z,988.07
2018-01-17T01:50:43.478Z,988.08
2018-01-17T01:51:43.492Z,988.09
2018-01-17T01:53:36.657Z,988.10
2018-01-17T01:54:36.644Z,988.14
2018-01-17T01:56:29.793Z,988.14
2018-01-17T01:57:29.809Z,988.13
2018-01-17T01:59:22.973Z,988.13
2018-01-17T02:00:22.969Z,988.07
2018-01-17T02:02:16.109Z,988.10
2018-01-17T02:03:16.123Z,988.09
2018-01-17T02:05:09.286Z,988.13
2018-01-17T02:06:09.314Z,988.13
2018-01-17T02:08:02.464Z,988.12
2018-01-17T02:09:02.460Z,988.08
2018-01-17T02:10:55.613Z,988.04
2018-01-17T02:11:55.631Z,988.06
2018-01-17T02:13:48.801Z,988.00
2018-01-17T02:14:48.782Z,988.01
2018-01-17T02:16:40.949Z,988.01
2018-01-17T02:17:40.946Z,987.98
2018-01-17T02:19:50.491Z,987.98
2018-01-17T02:20:50.499Z,987.94
2018-01-17T02:22:42.639Z,987.94
2018-01-17T02:23:42.648Z,987.92
2018-01-17T02:25:34.814Z,987.92
2018-01-17T02:26:34.826Z,987.91
2018-01-17T02:28:27.096Z,987.96
2018-01-17T02:29:26.984Z,987.93
2018-01-17T02:31:19.174Z,987.94
2018-01-17T02:32:19.184Z,987.97
2018-01-17T02:34:11.368Z,987.95
2018-01-17T02:35:11.371Z,987.94
2018-01-17T02:37:03.538Z,987.96
2018-01-17T02:38:03.550Z,987.96
2018-01-17T02:39:55.726Z,987.94
2018-01-17T02:40:55.737Z,987.96
2018-01-17T02:42:48.905Z,987.98
2018-01-17T02:43:48.912Z,987.93
2018-01-17T02:45:41.074Z,987.93
2018-01-17T02:46:41.076Z,987.94
2018-01-17T02:48:33.278Z,987.98
2018-01-17T02:49:33.291Z,987.96
2018-01-17T02:51:25.439Z,987.94
2018-01-17T02:52:25.448Z,987.93
2018-01-17T02:54:17.670Z,987.87
2018-01-17T02:55:17.676Z,987.88
2018-01-17T02:57:09.864Z,987.90
2018-01-17T02:58:09.886Z,987.92
2018-01-17T03:00:02.837Z,987.97
2018-01-17T03:01:02.072Z,987.98
2018-01-17T03:02:54.248Z,987.97
2018-01-17T03:03:54.261Z,988.02
2018-01-17T03:05:46.430Z,988.03
2018-01-17T03:06:46.436Z,988.04
2018-01-17T03:08:51.999Z,988.04
2018-01-17T03:09:51.991Z,988.03
2018-01-17T03:11:44.220Z,988.01
2018-01-17T03:12:44.230Z,987.96
2018-01-17T03:14:36.423Z,987.99
2018-01-17T03:15:36.421Z,987.96
2018-01-17T03:17:28.584Z,987.89
2018-01-17T03:18:28.607Z,987.83
2018-01-17T03:20:20.759Z,987.80
2018-01-17T03:21:20.770Z,987.83
2018-01-17T03:23:12.941Z,987.83
2018-01-17T03:24:12.950Z,987.82
2018-01-17T03:26:21.537Z,987.82
2018-01-17T03:27:21.564Z,987.77
2018-01-17T03:29:13.801Z,987.80
2018-01-17T03:30:13.782Z,987.84
2018-01-17T03:32:05.951Z,987.82
2018-01-17T03:33:05.973Z,987.83
2018-01-17T03:34:58.153Z,987.82
2018-01-17T03:35:58.140Z,987.80
2018-01-17T03:37:51.313Z,987.79
2018-01-17T03:38:51.344Z,987.79
2018-01-17T03:40:43.569Z,987.80
2018-01-17T03:41:43.571Z,987.79
2018-01-17T03:43:35.800Z,987.77
2018-01-17T03:44:35.832Z,987.78
2018-01-17T03:46:28.002Z,987.77
2018-01-17T03:47:28.000Z,987.76
2018-01-17T03:49:21.202Z,987.72
2018-01-17T03:50:21.205Z,987.70
2018-01-17T03:52:14.341Z,987.71
2018-01-17T03:53:14.370Z,987.67
2018-01-17T03:55:07.530Z,987.71
2018-01-17T03:56:07.516Z,987.69
2018-01-17T03:58:00.663Z,987.64
2018-01-17T03:59:00.675Z,987.66
2018-01-17T04:00:53.840Z,987.65
2018-01-17T04:01:53.834Z,987.69
2018-01-17T04:03:46.987Z,987.63
2018-01-17T04:04:46.994Z,987.65
2018-01-17T04:06:40.154Z,987.61
2018-01-17T04:07:40.159Z,987.66
2018-01-17T04:09:33.329Z,987.62
2018-01-17T04:10:33.318Z,987.65
2018-01-17T04:12:26.464Z,987.65
2018-01-17T04:13:26.478Z,987.69
2018-01-17T04:15:19.688Z,987.69
2018-01-17T04:16:19.676Z,987.66
2018-01-17T04:18:12.808Z,987.66
2018-01-17T04:19:12.796Z,987.66
2018-01-17T04:21:05.949Z,987.65
2018-01-17T04:22:05.973Z,987.62
2018-01-17T04:23:59.133Z,987.68
2018-01-17T04:24:59.121Z,987.72
2018-01-17T04:26:52.284Z,987.72
2018-01-17T04:27:52.279Z,987.72
2018-01-17T04:29:44.469Z,987.75
2018-01-17T04:30:44.473Z,987.75
2018-01-17T04:32:52.038Z,987.72
2018-01-17T04:33:52.033Z,987.70
2018-01-17T04:35:44.206Z,987.72
2018-01-17T04:36:44.215Z,987.76
2018-01-17T04:38:36.411Z,987.75
2018-01-17T04:39:36.406Z,987.75
2018-01-17T04:41:45.139Z,987.80
2018-01-17T04:42:45.135Z,987.77
2018-01-17T04:44:37.355Z,987.74
2018-01-17T04:45:37.354Z,987.72
2018-01-17T04:47:29.485Z,987.76
2018-01-17T04:48:29.510Z,987.74
2018-01-17T04:50:21.976Z,987.77
2018-01-17T04:51:21.710Z,987.81
2018-01-17T04:53:13.916Z,987.83
2018-01-17T04:54:13.936Z,987.82
2018-01-17T04:56:06.114Z,987.77
2018-01-17T04:57:06.121Z,987.81
2018-01-17T04:58:59.237Z,987.85
2018-01-17T04:59:59.239Z,987.85
2018-01-17T05:01:51.465Z,987.85
2018-01-17T05:02:51.426Z,987.86
2018-01-17T05:04:43.657Z,987.86
2018-01-17T05:05:43.607Z,987.84
2018-01-17T05:07:35.828Z,987.77
2018-01-17T05:08:35.797Z,987.82
2018-01-17T05:10:27.959Z,987.79
2018-01-17T05:11:27.977Z,987.80
2018-01-17T05:13:20.166Z,987.77
2018-01-17T05:14:20.168Z,987.78
2018-01-17T05:16:13.394Z,987.78
2018-01-17T05:17:13.330Z,987.76
2018-01-17T05:19:05.515Z,987.78
2018-01-17T05:20:05.508Z,987.76
2018-01-17T05:21:57.701Z,987.73
2018-01-17T05:22:57.712Z,987.71
2018-01-17T05:24:49.938Z,987.72
2018-01-17T05:25:49.948Z,987.68
2018-01-17T05:27:42.148Z,987.70
2018-01-17T05:28:42.142Z,987.68
2018-01-17T05:30:35.400Z,987.70
2018-01-17T05:31:35.275Z,987.76
2018-01-17T05:33:27.541Z,987.78
2018-01-17T05:34:27.542Z,987.70
2018-01-17T05:36:19.720Z,987.73
2018-01-17T05:37:19.728Z,987.76
2018-01-17T05:39:11.892Z,987.71
2018-01-17T05:40:11.921Z,987.74
2018-01-17T05:42:20.619Z,987.71
2018-01-17T05:43:20.626Z,987.70
2018-01-17T05:45:12.813Z,987.72
2018-01-17T05:46:12.824Z,987.74
2018-01-17T05:48:05.015Z,987.72
2018-01-17T05:49:05.017Z,987.72
2018-01-17T05:50:58.477Z,987.71
2018-01-17T05:51:57.226Z,987.70
2018-01-17T05:53:49.433Z,987.70
2018-01-17T05:54:49.446Z,987.71
2018-01-17T05:56:41.667Z,987.67
2018-01-17T05:57:41.676Z,987.66
2018-01-17T05:59:33.877Z,987.69
2018-01-17T06:00:33.864Z,987.67
2018-01-17T06:02:42.465Z,987.71
2018-01-17T06:03:42.485Z,987.73
2018-01-17T06:05:34.896Z,987.71
2018-01-17T06:06:34.639Z,987.72
2018-01-17T06:08:26.824Z,987.72
2018-01-17T06:09:26.826Z,987.74
2018-01-17T06:11:19.103Z,987.76
2018-01-17T06:12:19.003Z,987.74
2018-01-17T06:14:12.158Z,987.74
2018-01-17T06:15:12.157Z,987.77
2018-01-17T06:17:05.316Z,987.75
2018-01-17T06:18:05.324Z,987.75
2018-01-17T06:19:58.470Z,987.72
2018-01-17T06:20:58.474Z,987.68
2018-01-17T06:22:50.654Z,987.71
2018-01-17T06:23:50.676Z,987.73
2018-01-17T06:25:43.869Z,987.77
2018-01-17T06:26:43.818Z,987.79
2018-01-17T06:28:36.049Z,987.78
2018-01-17T06:29:36.068Z,987.76
2018-01-17T06:31:28.576Z,987.80
2018-01-17T06:32:28.280Z,987.84
2018-01-17T06:34:21.452Z,987.90
2018-01-17T06:35:21.483Z,987.96
2018-01-17T06:37:13.666Z,987.96
2018-01-17T06:38:13.648Z,988.02
2018-01-17T06:40:06.784Z,987.98
2018-01-17T06:41:06.805Z,988.02
2018-01-17T06:42:59.962Z,987.99
2018-01-17T06:43:59.958Z,988.01
2018-01-17T06:45:53.005Z,988.02
2018-01-17T06:46:52.165Z,988.00
2018-01-17T06:48:57.761Z,987.99
2018-01-17T06:49:57.776Z,987.98
2018-01-17T06:51:50.016Z,987.97
2018-01-17T06:52:49.996Z,988.00
2018-01-17T06:54:52.852Z,988.05
2018-01-17T06:55:52.948Z,988.04
2018-01-17T06:57:45.035Z,988.06
2018-01-17T06:58:45.043Z,988.07
2018-01-17T07:00:48.016Z,988.07
2018-01-17T07:01:47.918Z,988.10
2018-01-17T07:03:40.103Z,988.10
2018-01-17T07:04:40.065Z,988.14
2018-01-17T07:06:32.304Z,988.13
2018-01-17T07:07:32.289Z,988.11
2018-01-17T07:09:40.810Z,988.11
2018-01-17T07:10:40.815Z,988.13
2018-01-17T07:12:33.013Z,988.12
2018-01-17T07:13:33.002Z,988.13
2018-01-17T07:15:25.179Z,988.13
2018-01-17T07:16:25.192Z,988.13
2018-01-17T07:18:17.343Z,988.19
2018-01-17T07:19:17.342Z,988.17
2018-01-17T07:21:09.818Z,988.19
2018-01-17T07:22:09.520Z,988.18
2018-01-17T07:24:02.072Z,988.16
2018-01-17T07:25:01.720Z,988.17
2018-01-17T07:26:53.846Z,988.14
2018-01-17T07:27:53.884Z,988.11
2018-01-17T07:29:46.123Z,988.14
2018-01-17T07:30:46.026Z,988.14
2018-01-17T07:32:38.400Z,988.15
2018-01-17T07:33:38.410Z,988.21
2018-01-17T07:35:30.597Z,988.17
2018-01-17T07:36:30.673Z,988.17
2018-01-17T07:38:22.767Z,988.17
2018-01-17T07:39:22.789Z,988.20
2018-01-17T07:41:15.012Z,988.17
2018-01-17T07:42:15.006Z,988.19
2018-01-17T07:44:08.286Z,988.15
2018-01-17T07:45:08.287Z,988.17
2018-01-17T07:47:00.469Z,988.19
2018-01-17T07:48:00.472Z,988.20
2018-01-17T07:49:53.638Z,988.20
2018-01-17T07:50:53.637Z,988.25
2018-01-17T07:53:03.142Z,988.25
2018-01-17T07:54:03.108Z,988.24
2018-01-17T07:55:55.314Z,988.30
2018-01-17T07:56:55.266Z,988.33
2018-01-17T07:58:47.451Z,988.41
2018-01-17T07:59:47.501Z,988.47
2018-01-17T08:01:39.635Z,988.43
2018-01-17T08:02:39.653Z,988.40
2018-01-17T08:04:32.776Z,988.43
2018-01-17T08:05:32.884Z,988.48
2018-01-17T08:07:25.086Z,988.46
2018-01-17T08:08:25.023Z,988.48
2018-01-17T08:10:18.173Z,988.50
2018-01-17T08:11:18.202Z,988.49
2018-01-17T08:13:23.794Z,988.49
2018-01-17T08:14:23.752Z,988.50
2018-01-17T08:16:32.243Z,988.49
2018-01-17T08:17:32.237Z,988.58
2018-01-17T08:19:24.469Z,988.53
2018-01-17T08:20:24.479Z,988.55
2018-01-17T08:22:16.667Z,988.59
2018-01-17T08:23:16.672Z,988.60
2018-01-17T08:25:08.807Z,988.54
2018-01-17T08:26:08.864Z,988.55
2018-01-17T08:28:00.973Z,988.59
2018-01-17T08:29:00.973Z,988.55
2018-01-17T08:30:53.208Z,988.65
2018-01-17T08:31:53.227Z,988.67
2018-01-17T08:33:45.443Z,988.67
2018-01-17T08:34:45.484Z,988.68
2018-01-17T08:36:37.642Z,988.67
2018-01-17T08:37:37.612Z,988.69
2018-01-17T08:39:29.828Z,988.74
2018-01-17T08:40:29.844Z,988.71
2018-01-17T08:42:21.963Z,988.74
2018-01-17T08:43:21.982Z,988.74
2018-01-17T08:45:14.227Z,988.74
2018-01-17T08:46:14.217Z,988.75
2018-01-17T08:48:06.402Z,988.77
2018-01-17T08:49:06.400Z,988.83
2018-01-17T08:50:58.595Z,988.78
2018-01-17T08:51:58.583Z,988.83
2018-01-17T08:53:50.823Z,988.81
2018-01-17T08:54:50.772Z,988.84
2018-01-17T08:56:42.950Z,988.87
2018-01-17T08:57:42.956Z,988.88
2018-01-17T08:59:35.119Z,988.88
2018-01-17T09:00:35.852Z,988.91
2018-01-17T09:02:41.683Z,988.89
2018-01-17T09:03:41.704Z,988.88
2018-01-17T09:05:48.197Z,988.91
2018-01-17T09:06:48.206Z,988.94
2018-01-17T09:08:40.425Z,988.95
2018-01-17T09:09:40.461Z,988.93
2018-01-17T09:11:32.591Z,989.01
2018-01-17T09:12:32.604Z,989.03
2018-01-17T09:14:24.811Z,989.05
2018-01-17T09:15:24.808Z,989.11
2018-01-17T09:17:17.035Z,989.12
2018-01-17T09:18:17.025Z,989.14
2018-01-17T09:20:09.220Z,989.16
2018-01-17T09:21:09.228Z,989.16
2018-01-17T09:23:12.105Z,989.18
2018-01-17T09:24:12.110Z,989.19
2018-01-17T09:26:04.294Z,989.19
2018-01-17T09:27:04.306Z,989.20
2018-01-17T09:28:56.469Z,989.24
2018-01-17T09:29:56.477Z,989.30
2018-01-17T09:31:48.945Z,989.33
2018-01-17T09:32:48.642Z,989.35
2018-01-17T09:34:40.823Z,989.40
2018-01-17T09:35:40.939Z,989.42
2018-01-17T09:37:33.049Z,989.41
2018-01-17T09:38:33.050Z,989.44
2018-01-17T09:40:25.186Z,989.44
2018-01-17T09:41:25.218Z,989.50
2018-01-17T09:43:17.424Z,989.53
2018-01-17T09:44:17.382Z,989.55
2018-01-17T09:46:09.548Z,989.57
2018-01-17T09:47:09.551Z,989.59
2018-01-17T09:49:01.728Z,989.63
2018-01-17T09:50:01.711Z,989.68
2018-01-17T09:51:53.932Z,989.72
2018-01-17T09:52:53.950Z,989.73
2018-01-17T09:54:46.107Z,989.76
2018-01-17T09:55:46.082Z,989.72
2018-01-17T09:57:38.250Z,989.82
2018-01-17T09:58:38.267Z,989.86
2018-01-17T10:00:41.123Z,989.77
2018-01-17T10:01:41.124Z,989.89
2018-01-17T10:03:33.285Z,989.87
2018-01-17T10:04:33.298Z,989.90
2018-01-17T10:06:36.130Z,989.91
2018-01-17T10:07:36.140Z,989.89
2018-01-17T10:09:28.304Z,989.97
2018-01-17T10:10:28.298Z,990.04
2018-01-17T10:12:31.139Z,989.96
2018-01-17T10:13:31.159Z,989.98
2018-01-17T10:15:23.288Z,989.94
2018-01-17T10:16:23.301Z,990.02
2018-01-17T10:18:26.287Z,990.02
2018-01-17T10:19:26.243Z,990.02
2018-01-17T10:21:18.424Z,990.02
2018-01-17T10:22:18.437Z,989.98
2018-01-17T10:24:23.971Z,990.04
2018-01-17T10:25:23.963Z,990.00
2018-01-17T10:27:16.201Z,990.03
2018-01-17T10:28:16.207Z,990.07
2018-01-17T10:30:08.589Z,990.11
2018-01-17T10:31:08.572Z,990.11
2018-01-17T10:33:00.734Z,990.10
2018-01-17T10:34:00.735Z,990.12
2018-01-17T10:35:52.928Z,990.16
2018-01-17T10:36:52.935Z,990.18
2018-01-17T10:38:58.473Z,990.18
2018-01-17T10:39:58.478Z,990.16
2018-01-17T10:41:50.633Z,990.15
2018-01-17T10:42:50.640Z,990.15
2018-01-17T10:44:42.841Z,990.21
2018-01-17T10:45:42.838Z,990.22
2018-01-17T10:47:35.012Z,990.22
2018-01-17T10:50:27.201Z,990.24
2018-01-17T10:51:27.195Z,990.19
2018-01-17T10:53:19.380Z,990.23
2018-01-17T10:54:19.381Z,990.29
2018-01-17T10:56:11.652Z,990.28
2018-01-17T10:57:11.599Z,990.26
2018-01-17T10:59:03.796Z,990.27
2018-01-17T11:00:03.803Z,990.27
2018-01-17T11:01:56.038Z,990.29
2018-01-17T11:02:56.042Z,990.39
2018-01-17T11:05:48.226Z,990.39
2018-01-17T11:07:40.405Z,990.41
2018-01-17T11:10:43.305Z,990.46
2018-01-17T11:11:43.308Z,990.44
2018-01-17T11:13:35.493Z,990.50
2018-01-17T11:14:35.497Z,990.50
2018-01-17T11:16:27.675Z,990.48
2018-01-17T11:17:27.679Z,990.53
2018-01-17T11:19:19.910Z,990.49
2018-01-17T11:20:19.922Z,990.47
2018-01-17T11:22:12.059Z,990.48
2018-01-17T11:23:12.060Z,990.47
2018-01-17T11:25:17.597Z,990.52
2018-01-17T11:26:17.605Z,990.55
2018-01-17T11:28:09.768Z,990.57
2018-01-17T11:29:09.795Z,990.55
2018-01-17T11:31:19.417Z,990.53
2018-01-17T11:32:19.370Z,990.59
2018-01-17T11:34:11.568Z,990.64
2018-01-17T11:35:11.582Z,990.61
2018-01-17T11:37:04.022Z,990.61
2018-01-17T11:38:03.753Z,990.60
2018-01-17T11:39:55.942Z,990.63
2018-01-17T11:40:55.938Z,990.63
2018-01-17T11:42:49.153Z,990.69
2018-01-17T11:43:49.166Z,990.66
2018-01-17T11:45:41.400Z,990.71
2018-01-17T11:46:41.378Z,990.70
2018-01-17T11:48:34.549Z,990.74
2018-01-17T11:49:34.539Z,990.78
2018-01-17T11:51:26.695Z,990.72
2018-01-17T11:52:26.714Z,990.72
2018-01-17T11:54:18.904Z,990.71
2018-01-17T11:55:18.908Z,990.75
2018-01-17T11:57:11.164Z,990.76
2018-01-17T11:58:11.237Z,990.78
2018-01-17T12:00:04.389Z,990.83
2018-01-17T12:01:04.374Z,990.83
2018-01-17T12:02:56.562Z,990.82
2018-01-17T12:03:56.589Z,990.86
2018-01-17T12:05:48.776Z,990.84
2018-01-17T12:06:48.782Z,990.87
2018-01-17T12:08:40.987Z,990.78
2018-01-17T12:09:41.003Z,990.83
2018-01-17T12:11:33.191Z,990.87
2018-01-17T12:12:33.183Z,990.89
2018-01-17T12:14:25.393Z,990.83
2018-01-17T12:15:25.391Z,990.85
2018-01-17T12:17:17.563Z,990.93
2018-01-17T12:18:17.581Z,990.87
2018-01-17T12:20:09.767Z,990.82
2018-01-17T12:21:09.748Z,990.85
2018-01-17T12:23:01.943Z,990.89
2018-01-17T12:24:01.966Z,990.87
2018-01-17T12:25:54.146Z,990.84
2018-01-17T12:26:54.145Z,990.90
2018-01-17T12:28:46.284Z,990.94
2018-01-17T12:29:46.301Z,990.96
2018-01-17T12:31:52.760Z,990.91
2018-01-17T12:32:52.768Z,990.99
2018-01-17T12:34:45.043Z,991.01
2018-01-17T12:35:44.972Z,990.99
2018-01-17T12:37:37.148Z,991.02
2018-01-17T12:38:37.160Z,991.04
2018-01-17T12:40:29.336Z,991.02
2018-01-17T12:41:29.346Z,991.04
2018-01-17T12:43:21.515Z,991.11
2018-01-17T12:44:21.516Z,991.04
2018-01-17T12:46:13.731Z,991.12
2018-01-17T12:47:13.718Z,991.05
2018-01-17T12:49:05.875Z,991.05
2018-01-17T12:50:05.891Z,991.06
2018-01-17T12:51:58.116Z,991.12
2018-01-17T12:52:58.112Z,991.12
2018-01-17T12:54:50.273Z,991.13
2018-01-17T12:55:50.299Z,991.18
2018-01-17T12:57:42.467Z,991.22
2018-01-17T12:58:42.480Z,991.20
2018-01-17T13:00:34.624Z,991.24
2018-01-17T13:01:34.621Z,991.30
2018-01-17T13:03:26.800Z,991.35
2018-01-17T13:04:26.801Z,991.32
2018-01-17T13:06:18.937Z,991.33
2018-01-17T13:07:18.940Z,991.32
2018-01-17T13:09:11.131Z,991.42
2018-01-17T13:10:11.140Z,991.39
2018-01-17T13:12:19.698Z,991.51
2018-01-17T13:13:19.658Z,991.51
2018-01-17T13:15:12.813Z,991.55
2018-01-17T13:16:12.854Z,991.58
2018-01-17T13:18:04.985Z,991.59
2018-01-17T13:19:04.990Z,991.67
2018-01-17T13:20:57.192Z,991.69
2018-01-17T13:21:57.185Z,991.68
2018-01-17T13:23:49.337Z,991.71
2018-01-17T13:24:49.349Z,991.66
2018-01-17T13:26:41.508Z,991.71
2018-01-17T13:27:41.514Z,991.70
2018-01-17T13:29:33.714Z,991.70
2018-01-17T13:30:33.745Z,991.71
2018-01-17T13:32:25.985Z,991.85
2018-01-17T13:33:25.988Z,991.94
2018-01-17T13:35:18.448Z,991.94
2018-01-17T13:36:18.230Z,991.99
2018-01-17T13:38:10.462Z,992.03
2018-01-17T13:39:10.477Z,992.04
2018-01-17T13:41:02.700Z,992.01
2018-01-17T13:42:02.706Z,992.10
2018-01-17T13:43:54.938Z,992.05
2018-01-17T13:44:54.949Z,992.10
2018-01-17T13:46:47.074Z,992.11
2018-01-17T13:47:47.092Z,992.13
2018-01-17T13:49:39.304Z,992.12
2018-01-17T13:50:39.316Z,992.18
2018-01-17T13:52:31.464Z,992.18
2018-01-17T13:53:31.485Z,992.16
2018-01-17T13:55:23.695Z,992.21
2018-01-17T13:56:23.801Z,992.23
2018-01-17T13:58:16.065Z,992.27
2018-01-17T13:59:16.093Z,992.34
2018-01-17T14:01:08.274Z,992.26
2018-01-17T14:02:08.274Z,992.33
2018-01-17T14:04:00.432Z,992.26
2018-01-17T14:05:00.437Z,992.29
2018-01-17T14:07:10.047Z,992.33
2018-01-17T14:08:10.014Z,992.35
2018-01-17T14:10:02.219Z,992.38
2018-01-17T14:11:02.220Z,992.39
2018-01-17T14:12:54.388Z,992.40
2018-01-17T14:13:54.385Z,992.45
2018-01-17T14:15:46.618Z,992.44
2018-01-17T14:16:46.618Z,992.47
2018-01-17T14:18:39.788Z,992.50
2018-01-17T14:19:39.826Z,992.53
2018-01-17T14:21:45.373Z,992.58
2018-01-17T14:22:45.371Z,992.57
2018-01-17T14:24:38.507Z,992.64
2018-01-17T14:25:38.536Z,992.64
2018-01-17T14:27:46.052Z,992.68
2018-01-17T14:28:46.061Z,992.69
2018-01-17T14:30:38.241Z,992.76
2018-01-17T14:31:38.234Z,992.77
2018-01-17T14:33:30.409Z,992.82
2018-01-17T14:34:30.412Z,992.87
2018-01-17T14:36:22.596Z,992.86
2018-01-17T14:37:22.601Z,992.93
2018-01-17T14:39:15.771Z,993.01
2018-01-17T14:40:15.758Z,993.06
2018-01-17T14:42:07.943Z,993.10
2018-01-17T14:43:07.946Z,993.10
2018-01-17T14:45:01.151Z,993.16
2018-01-17T14:46:01.166Z,993.15
2018-01-17T14:47:54.157Z,993.20
2018-01-17T14:48:53.347Z,993.24
2018-01-17T14:50:46.507Z,993.26
2018-01-17T14:51:46.499Z,993.24
2018-01-17T14:53:39.652Z,993.27
2018-01-17T14:54:39.652Z,993.31
2018-01-17T14:56:31.852Z,993.34
2018-01-17T14:57:31.939Z,993.32
2018-01-17T14:59:24.032Z,993.39
2018-01-17T15:00:24.026Z,993.42
2018-01-17T15:02:16.227Z,993.43
2018-01-17T15:03:16.226Z,993.44
2018-01-17T15:05:09.384Z,993.43
2018-01-17T15:06:09.393Z,993.53
2018-01-17T15:08:02.541Z,993.53
2018-01-17T15:09:02.547Z,993.60
2018-01-17T15:10:55.704Z,993.62
2018-01-17T15:11:55.707Z,993.68
2018-01-17T15:13:48.859Z,993.71
2018-01-17T15:14:48.857Z,993.73
2018-01-17T15:16:52.708Z,993.72
2018-01-17T15:17:52.695Z,993.76
2018-01-17T15:19:44.907Z,993.80
2018-01-17T15:20:44.906Z,993.84
2018-01-17T15:22:37.099Z,993.83
2018-01-17T15:23:37.069Z,993.86
2018-01-17T15:25:29.288Z,993.92
2018-01-17T15:26:29.295Z,993.91
2018-01-17T15:28:22.464Z,993.88
2018-01-17T15:29:22.470Z,993.89
2018-01-17T15:31:15.717Z,993.95
2018-01-17T15:32:15.706Z,993.96
2018-01-17T15:34:08.875Z,993.94
2018-01-17T15:35:08.887Z,994.02
2018-01-17T15:37:12.715Z,994.03
2018-01-17T15:38:12.714Z,994.05
2018-01-17T15:40:04.906Z,994.03
2018-01-17T15:41:04.893Z,994.06
2018-01-17T15:42:58.042Z,994.09
2018-01-17T15:43:58.048Z,994.07
2018-01-17T15:45:51.242Z,994.05
2018-01-17T15:46:51.210Z,994.08
2018-01-17T15:48:43.458Z,994.20
2018-01-17T15:49:43.458Z,994.17
2018-01-17T15:51:35.698Z,994.19
2018-01-17T15:52:35.685Z,994.21
2018-01-17T15:54:28.827Z,994.20
2018-01-17T15:55:28.844Z,994.21
2018-01-17T15:57:22.084Z,994.22
2018-01-17T15:58:22.024Z,994.25
2018-01-17T16:00:15.154Z,994.31
2018-01-17T16:01:15.169Z,994.25
2018-01-17T16:03:07.652Z,994.31
2018-01-17T16:04:07.369Z,994.28
2018-01-17T16:05:59.529Z,994.33
2018-01-17T16:06:59.530Z,994.29
2018-01-17T16:08:51.718Z,994.30
2018-01-17T16:09:51.714Z,994.39
2018-01-17T16:11:43.872Z,994.39
2018-01-17T16:12:43.863Z,994.41
2018-01-17T16:14:37.015Z,994.40
2018-01-17T16:15:37.022Z,994.44
2018-01-17T16:17:29.203Z,994.50
2018-01-17T16:18:29.189Z,994.54
2018-01-17T16:20:34.752Z,994.52
2018-01-17T16:21:34.757Z,994.52
2018-01-17T16:23:26.976Z,994.54
2018-01-17T16:24:26.975Z,994.57
2018-01-17T16:26:19.137Z,994.59
2018-01-17T16:27:19.168Z,994.61
2018-01-17T16:29:12.291Z,994.59
2018-01-17T16:30:12.299Z,994.63
2018-01-17T16:32:05.561Z,994.67
2018-01-17T16:33:05.474Z,994.70
2018-01-17T16:34:58.593Z,994.69
2018-01-17T16:35:58.619Z,994.68
2018-01-17T16:37:51.799Z,994.67
2018-01-17T16:38:51.798Z,994.62
2018-01-17T16:40:44.998Z,994.67
2018-01-17T16:41:45.006Z,994.67
2018-01-17T16:43:38.155Z,994.67
2018-01-17T16:44:38.160Z,994.67
2018-01-17T16:46:43.671Z,994.70
2018-01-17T16:47:43.655Z,994.73
2018-01-17T16:49:36.798Z,994.64
2018-01-17T16:50:36.805Z,994.71
2018-01-17T16:52:29.965Z,994.74
2018-01-17T16:53:29.967Z,994.81
2018-01-17T16:55:22.161Z,994.83
2018-01-17T16:56:22.177Z,994.85
2018-01-17T16:58:14.504Z,994.89
2018-01-17T16:59:14.480Z,994.89
2018-01-17T17:01:06.671Z,994.90
2018-01-17T17:02:06.651Z,994.91
2018-01-17T17:03:58.807Z,994.93
2018-01-17T17:04:58.799Z,994.88
2018-01-17T17:07:07.303Z,995.00
2018-01-17T17:08:07.334Z,994.96
2018-01-17T17:09:59.464Z,994.95
2018-01-17T17:10:59.484Z,994.96
2018-01-17T17:12:51.693Z,995.02
2018-01-17T17:13:51.691Z,995.05
2018-01-17T17:15:43.923Z,995.06
2018-01-17T17:16:43.934Z,995.06
2018-01-17T17:18:36.128Z,995.10
2018-01-17T17:19:36.113Z,995.10
2018-01-17T17:21:28.290Z,995.03
2018-01-17T17:22:28.293Z,995.05
2018-01-17T17:24:20.534Z,995.13
2018-01-17T17:25:20.541Z,995.11
2018-01-17T17:27:13.678Z,995.14
2018-01-17T17:28:13.676Z,995.11
2018-01-17T17:30:06.848Z,995.17
2018-01-17T17:31:06.848Z,995.17
2018-01-17T17:33:00.016Z,995.15
2018-01-17T17:34:00.021Z,995.16
2018-01-17T17:35:53.173Z,995.18
2018-01-17T17:36:53.177Z,995.23
2018-01-17T17:38:45.418Z,995.28
2018-01-17T17:39:45.377Z,995.29
2018-01-17T17:41:37.686Z,995.22
2018-01-17T17:42:37.550Z,995.26
2018-01-17T17:44:29.786Z,995.27
2018-01-17T17:45:29.797Z,995.34
2018-01-17T17:47:35.334Z,995.36
2018-01-17T17:48:35.339Z,995.35
2018-01-17T17:50:28.485Z,995.40
2018-01-17T17:51:28.501Z,995.43
2018-01-17T17:53:20.735Z,995.42
2018-01-17T17:54:20.714Z,995.45
2018-01-17T17:56:12.871Z,995.45
2018-01-17T17:57:12.875Z,995.45
2018-01-17T17:59:06.063Z,995.44
2018-01-17T18:00:06.029Z,995.42
2018-01-17T18:01:58.195Z,995.42
2018-01-17T18:02:58.213Z,995.44
2018-01-17T18:04:50.399Z,995.45
2018-01-17T18:05:50.413Z,995.44
2018-01-17T18:07:43.534Z,995.47
2018-01-17T18:08:43.551Z,995.50